Time;durP1;ratioP1;P1;durP2;ratioP2;P2;SDS_P1;SDS_P2;PMS_P1;PMS_P2;Temp;Humidity;BMP_temperature;BMP_pressure;BME280_temperature;BME280_humidity;BME280_pressure;Samples;Min_cycle;Max_cycle;Signal;HPM_P1;HPM_P2
2021/11/15 00:02:10;;;;;;;15.45;11.75;;;;;;;9.69;91.29;99932.44;5093503;28;20195;-74
2021/11/15 00:04:37;;;;;;;16.92;13.35;;;;;;;9.86;90.43;99923.50;5093729;28;20222;-74
2021/11/15 00:07:05;;;;;;;16.63;12.10;;;;;;;9.84;90.35;99925.44;5093584;28;20202;-74
2021/11/15 00:09:31;;;;;;;15.98;11.75;;;;;;;9.97;89.34;99913.09;5093862;28;20268;-75
2021/11/15 00:12:00;;;;;;;14.90;12.35;;;;;;;9.76;90.14;99913.22;5093320;28;20188;-75
2021/11/15 00:14:26;;;;;;;15.30;12.30;;;;;;;9.86;90.19;99912.75;5093205;28;20207;-74
2021/11/15 00:16:54;;;;;;;13.43;11.20;;;;;;;9.89;89.94;99926.06;5093440;28;20206;-74
2021/11/15 00:19:21;;;;;;;18.77;13.23;;;;;;;9.86;89.97;99920.81;5093181;28;20207;-74
2021/11/15 00:21:48;;;;;;;16.13;12.73;;;;;;;9.98;88.47;99914.84;5092651;28;20205;-74
2021/11/15 00:24:15;;;;;;;15.25;12.55;;;;;;;9.89;89.19;99918.84;5093261;28;20187;-74
2021/11/15 00:26:42;;;;;;;17.35;12.88;;;;;;;10.03;88.43;99923.53;5093562;28;20189;-75
2021/11/15 00:29:08;;;;;;;16.27;12.40;;;;;;;9.91;88.75;99926.88;5093387;28;20207;-74
2021/11/15 00:31:35;;;;;;;14.73;11.80;;;;;;;10.08;87.65;99926.84;5093572;28;20203;-74
2021/11/15 00:34:04;;;;;;;16.25;12.18;;;;;;;9.75;88.68;99924.06;5093264;28;20187;-74
2021/11/15 00:36:30;;;;;;;16.15;12.55;;;;;;;9.60;89.97;99921.16;5092896;28;20202;-74
2021/11/15 00:38:57;;;;;;;16.67;12.98;;;;;;;9.68;89.74;99923.50;5092710;28;20275;-75
2021/11/15 00:41:24;;;;;;;17.27;13.45;;;;;;;9.54;90.45;99917.91;5092830;28;20233;-74
2021/11/15 00:43:50;;;;;;;18.17;14.40;;;;;;;9.79;89.46;99920.25;5093097;28;20187;-74
2021/11/15 00:46:17;;;;;;;14.70;12.23;;;;;;;9.65;90.14;99925.47;5093148;28;20198;-74
2021/11/15 00:48:44;;;;;;;16.42;12.90;;;;;;;9.68;89.68;99925.28;5092843;28;20210;-74
2021/11/15 00:51:12;;;;;;;16.35;13.45;;;;;;;9.66;89.88;99924.53;5092706;28;20191;-74
2021/11/15 00:53:38;;;;;;;17.55;12.80;;;;;;;9.78;89.19;99924.78;5092939;28;20194;-74
2021/11/15 00:56:05;;;;;;;14.93;12.68;;;;;;;9.79;89.08;99921.16;5092780;28;20208;-74
2021/11/15 00:58:32;;;;;;;19.95;14.02;;;;;;;9.88;88.73;99925.19;5092956;28;20214;-74
2021/11/15 01:00:58;;;;;;;17.02;13.25;;;;;;;9.90;88.07;99927.78;5092693;28;20254;-75
2021/11/15 01:03:26;;;;;;;18.30;13.20;;;;;;;9.87;88.13;99928.81;5092635;28;20242;-74
2021/11/15 01:05:52;;;;;;;15.50;12.68;;;;;;;9.89;87.75;99932.31;5092844;28;20187;-74
2021/11/15 01:08:21;;;;;;;15.05;12.77;;;;;;;9.95;87.22;99934.69;5092944;28;20189;-75
2021/11/15 01:10:50;;;;;;;17.13;12.88;;;;;;;9.62;88.58;99934.53;5092533;28;20283;-75
2021/11/15 01:13:16;;;;;;;14.45;11.88;;;;;;;9.78;88.12;99932.84;5092341;28;20575;-75
2021/11/15 01:15:43;;;;;;;17.90;13.98;;;;;;;9.82;88.08;99934.44;5092719;28;20194;-73
2021/11/15 01:18:10;;;;;;;19.45;13.52;;;;;;;9.92;87.69;99933.97;5092353;28;20184;-72
2021/11/15 01:20:37;;;;;;;16.92;14.05;;;;;;;9.79;87.54;99939.06;5092686;28;20222;-73
2021/11/15 01:23:05;;;;;;;18.60;15.25;;;;;;;9.98;86.83;99937.22;5092446;28;20189;-73
2021/11/15 01:25:34;;;;;;;17.08;13.65;;;;;;;9.87;86.93;99938.72;5092582;28;20196;-75
2021/11/15 01:28:00;;;;;;;21.00;14.63;;;;;;;9.80;87.37;99941.69;5092616;28;20663;-73
2021/11/15 01:30:28;;;;;;;16.10;12.30;;;;;;;9.89;86.67;99942.22;5092340;28;20184;-73
2021/11/15 01:32:55;;;;;;;15.45;12.68;;;;;;;10.01;86.27;99938.88;5094393;28;20766;-73
2021/11/15 01:35:22;;;;;;;18.33;14.27;;;;;;;9.76;87.47;99942.78;5096830;28;20212;-75
2021/11/15 01:37:49;;;;;;;18.55;14.40;;;;;;;9.77;87.47;99938.31;5096669;28;20210;-74
2021/11/15 01:40:22;;;;;;;19.23;13.70;;;;;;;9.90;86.73;99942.09;5096340;28;20204;-74
2021/11/15 01:42:52;;;;;;;16.63;13.82;;;;;;;9.89;86.32;99943.06;5096131;28;20220;-74
2021/11/15 01:45:23;;;;;;;18.10;12.90;;;;;;;9.76;86.74;99947.31;5096511;28;20180;-74
2021/11/15 01:47:50;;;;;;;16.40;13.63;;;;;;;9.75;86.77;99949.13;5096221;28;20198;-74
2021/11/15 01:50:17;;;;;;;15.52;13.02;;;;;;;9.74;86.32;99944.69;5096491;28;20195;-74
2021/11/15 01:52:45;;;;;;;18.00;12.93;;;;;;;9.66;86.36;99946.91;5096369;28;20198;-74
2021/11/15 01:55:12;;;;;;;17.50;13.32;;;;;;;9.58;87.42;99947.25;5095849;28;20216;-72
2021/11/15 01:57:39;;;;;;;15.88;12.75;;;;;;;9.65;87.39;99945.13;5095980;28;20196;-74
2021/11/15 02:00:11;;;;;;;17.70;14.20;;;;;;;9.46;87.72;99939.78;5096254;28;20208;-74
2021/11/15 02:02:38;;;;;;;17.52;13.27;;;;;;;9.48;88.08;99942.41;5096364;28;20191;-74
2021/11/15 02:05:05;;;;;;;16.85;13.35;;;;;;;9.67;87.37;99943.25;5095929;28;20234;-74
2021/11/15 02:07:32;;;;;;;16.95;13.00;;;;;;;9.71;85.97;99950.22;5096244;28;20534;-74
2021/11/15 02:09:59;;;;;;;15.90;13.60;;;;;;;9.76;86.22;99947.31;5096009;28;20191;-74
2021/11/15 02:12:26;;;;;;;16.70;13.43;;;;;;;9.77;85.62;99938.31;5096123;28;20203;-74
2021/11/15 02:14:53;;;;;;;18.15;13.85;;;;;;;9.81;86.05;99946.16;5095895;28;20198;-74
2021/11/15 02:17:21;;;;;;;16.00;12.00;;;;;;;9.93;84.87;99941.09;5095822;28;20276;-75
2021/11/15 02:19:48;;;;;;;18.35;13.43;;;;;;;9.94;84.40;99934.78;5095614;28;20227;-75
2021/11/15 02:22:16;;;;;;;16.42;12.50;;;;;;;9.88;84.29;99941.34;5095619;28;20188;-73
2021/11/15 02:24:44;;;;;;;16.30;13.35;;;;;;;9.44;86.91;99940.81;5095586;28;20190;-72
2021/11/15 02:27:11;;;;;;;15.85;11.95;;;;;;;9.40;87.65;99943.63;5095752;28;20208;-74
2021/11/15 02:29:38;;;;;;;20.75;13.88;;;;;;;9.34;87.40;99941.25;5095703;28;20601;-75
2021/11/15 02:32:06;;;;;;;18.40;13.90;;;;;;;9.52;87.07;99934.13;5095825;28;20283;-75
2021/11/15 02:34:33;;;;;;;16.08;11.75;;;;;;;9.41;86.62;99939.16;5095574;28;20204;-74
2021/11/15 02:37:00;;;;;;;16.67;12.70;;;;;;;9.45;86.86;99938.06;5096112;28;20189;-74
2021/11/15 02:39:28;;;;;;;18.85;14.13;;;;;;;9.43;87.16;99939.06;5095635;28;20209;-74
2021/11/15 02:41:55;;;;;;;16.88;12.93;;;;;;;9.49;86.41;99945.00;5095219;28;20239;-74
2021/11/15 02:44:21;;;;;;;17.55;13.38;;;;;;;9.52;85.72;99942.19;5094271;28;20207;-74
2021/11/15 02:46:48;;;;;;;19.60;14.88;;;;;;;9.46;86.06;99938.94;5095483;28;20717;-74
2021/11/15 02:49:15;;;;;;;16.40;11.95;;;;;;;9.53;86.27;99940.38;5095616;28;20274;-74
2021/11/15 02:51:41;;;;;;;16.08;12.10;;;;;;;9.63;85.23;99941.66;5095073;28;20190;-74
2021/11/15 02:54:08;;;;;;;17.33;13.27;;;;;;;9.49;85.55;99945.00;5095288;28;20203;-74
2021/11/15 02:56:36;;;;;;;16.85;13.43;;;;;;;9.56;85.58;99937.53;5095225;28;20536;-74
2021/11/15 02:59:03;;;;;;;19.15;14.27;;;;;;;9.53;85.39;99935.84;5094813;28;20192;-74
2021/11/15 03:01:30;;;;;;;18.10;12.73;;;;;;;9.53;85.78;99937.69;5094908;28;20309;-75
2021/11/15 03:03:57;;;;;;;16.67;11.95;;;;;;;9.75;84.39;99932.13;5094913;28;20186;-74
2021/11/15 03:06:24;;;;;;;20.58;14.27;;;;;;;9.65;84.60;99937.06;5095074;28;20662;-74
2021/11/15 03:08:51;;;;;;;19.70;13.32;;;;;;;9.65;84.77;99944.28;5095290;28;20199;-74
2021/11/15 03:11:18;;;;;;;16.75;13.43;;;;;;;9.66;84.71;99930.75;5095086;28;20177;-74
2021/11/15 03:13:47;;;;;;;20.60;14.07;;;;;;;9.58;84.88;99936.50;5094818;28;20286;-74
2021/11/15 03:16:15;;;;;;;15.57;12.05;;;;;;;9.45;85.76;99932.69;5094794;28;20566;-73
2021/11/15 03:18:44;;;;;;;16.58;13.02;;;;;;;9.65;84.53;99937.06;5094859;28;20524;-74
2021/11/15 03:21:13;;;;;;;19.33;13.93;;;;;;;9.37;86.56;99941.09;5094380;28;20218;-73
2021/11/15 03:23:42;;;;;;;17.95;13.10;;;;;;;9.35;86.11;99937.63;5094409;28;20204;-75
2021/11/15 03:26:08;;;;;;;19.25;14.07;;;;;;;9.22;86.96;99933.75;5094478;28;20192;-75
2021/11/15 03:28:37;;;;;;;17.85;12.93;;;;;;;9.24;86.27;99923.81;5094814;28;20194;-74
2021/11/15 03:31:09;;;;;;;20.80;14.70;;;;;;;9.53;85.31;99922.41;5094538;28;20204;-73
2021/11/15 03:33:37;;;;;;;20.48;14.50;;;;;;;9.58;84.96;99927.56;5094394;28;20198;-74
2021/11/15 03:36:04;;;;;;;18.17;13.50;;;;;;;9.40;85.14;99918.56;5094080;28;20195;-74
2021/11/15 03:38:31;;;;;;;20.45;14.82;;;;;;;9.39;85.46;99930.28;5094475;28;20288;-74
2021/11/15 03:40:58;;;;;;;20.70;14.63;;;;;;;9.44;85.12;99925.56;5094075;28;20238;-74
2021/11/15 03:43:25;;;;;;;20.33;14.68;;;;;;;9.40;85.43;99932.00;5093738;28;20231;-74
2021/11/15 03:45:51;;;;;;;19.23;13.25;;;;;;;9.57;84.59;99931.22;5094068;28;20192;-73
2021/11/15 03:48:20;;;;;;;19.67;14.25;;;;;;;9.56;84.96;99934.84;5093808;28;20210;-75
2021/11/15 03:50:54;;;;;;;17.90;13.75;;;;;;;9.45;85.20;99930.00;5094111;28;20273;-75
2021/11/15 03:53:22;;;;;;;18.70;13.90;;;;;;;9.38;85.51;99925.84;5094196;28;20188;-74
2021/11/15 03:55:49;;;;;;;21.25;14.73;;;;;;;9.60;84.49;99928.38;5093965;28;20214;-74
2021/11/15 03:58:16;;;;;;;22.27;14.38;;;;;;;9.53;84.93;99917.03;5093915;28;20282;-74
2021/11/15 04:00:43;;;;;;;17.60;14.02;;;;;;;9.24;85.39;99918.44;5093683;28;20700;-74
2021/11/15 04:03:16;;;;;;;20.02;15.13;;;;;;;9.08;87.43;99925.50;5093840;28;20181;-74
2021/11/15 04:05:50;;;;;;;17.70;13.10;;;;;;;9.16;86.37;99921.50;5093832;28;20648;-74
2021/11/15 04:08:17;;;;;;;19.98;14.60;;;;;;;9.34;86.15;99913.53;5093712;28;20189;-74
2021/11/15 04:10:45;;;;;;;20.88;13.10;;;;;;;9.33;85.93;99917.13;5093335;28;20183;-74
2021/11/15 04:13:18;;;;;;;18.23;13.93;;;;;;;9.36;85.40;99907.13;5093064;28;20197;-73
2021/11/15 04:15:48;;;;;;;18.63;14.27;;;;;;;9.41;84.81;99923.03;5093605;28;20621;-75
2021/11/15 04:18:16;;;;;;;18.90;14.13;;;;;;;9.42;84.54;99921.19;5093731;28;20588;-74
2021/11/15 04:20:45;;;;;;;18.70;13.90;;;;;;;9.41;84.53;99912.28;5093073;28;20231;-74
2021/11/15 04:23:12;;;;;;;16.55;12.82;;;;;;;9.48;83.97;99915.53;5093637;28;20544;-74
2021/11/15 04:25:39;;;;;;;18.75;14.07;;;;;;;9.48;84.00;99921.78;5093462;28;20193;-74
2021/11/15 04:28:06;;;;;;;16.63;12.98;;;;;;;9.53;83.74;99916.19;5093525;28;20203;-73
2021/11/15 04:30:33;;;;;;;20.20;14.40;;;;;;;9.43;84.39;99920.25;5093432;28;20189;-74
2021/11/15 04:33:02;;;;;;;18.58;13.80;;;;;;;9.17;85.47;99917.00;5093346;28;20187;-75
2021/11/15 04:35:30;;;;;;;17.98;13.02;;;;;;;9.18;85.58;99916.06;5093220;28;20548;-74
2021/11/15 04:37:59;;;;;;;18.75;14.98;;;;;;;9.10;86.67;99911.03;5093323;28;20218;-74
2021/11/15 04:40:26;;;;;;;18.77;14.52;;;;;;;9.12;86.40;99909.16;5093063;28;20205;-74
2021/11/15 04:42:52;;;;;;;18.70;13.70;;;;;;;9.28;85.45;99908.44;5092745;28;20612;-74
2021/11/15 04:45:19;;;;;;;21.33;15.32;;;;;;;9.37;84.97;99911.53;5092981;28;20274;-74
2021/11/15 04:47:47;;;;;;;24.90;14.35;;;;;;;9.20;85.60;99916.84;5092863;28;20210;-74
2021/11/15 04:50:15;;;;;;;20.55;14.63;;;;;;;9.42;84.46;99910.44;5092804;28;20193;-73
2021/11/15 04:52:41;;;;;;;21.98;15.85;;;;;;;9.45;84.36;99915.66;5092860;28;20183;-74
2021/11/15 04:55:12;;;;;;;20.50;14.32;;;;;;;9.47;83.21;99914.66;5092635;28;20293;-74
2021/11/15 04:57:39;;;;;;;19.42;13.88;;;;;;;9.25;84.97;99912.16;5092766;28;20200;-74
2021/11/15 05:00:08;;;;;;;20.65;13.60;;;;;;;9.42;83.89;99905.06;5093038;28;20261;-73
2021/11/15 05:02:35;;;;;;;24.05;16.27;;;;;;;9.38;84.02;99915.97;5092404;28;20232;-74
2021/11/15 05:05:02;;;;;;;16.70;14.05;;;;;;;9.26;84.70;99918.38;5092580;28;20182;-72
2021/11/15 05:07:28;;;;;;;22.33;14.60;;;;;;;9.24;84.79;99902.31;5091954;28;20206;-74
2021/11/15 05:09:55;;;;;;;20.23;14.40;;;;;;;9.26;84.85;99902.25;5092856;28;20184;-75
2021/11/15 05:12:26;;;;;;;20.40;14.30;;;;;;;9.23;85.62;99905.97;5092913;28;20209;-74
2021/11/15 05:14:52;;;;;;;20.67;14.05;;;;;;;9.10;85.23;99894.91;5092989;28;20195;-74
2021/11/15 05:17:19;;;;;;;18.38;14.25;;;;;;;9.18;85.59;99887.38;5092955;28;20193;-74
2021/11/15 05:19:46;;;;;;;20.60;14.70;;;;;;;9.25;85.25;99892.44;5092658;28;20194;-73
2021/11/15 05:22:13;;;;;;;21.35;13.77;;;;;;;9.21;85.40;99896.25;5092500;28;20575;-74
2021/11/15 05:24:39;;;;;;;20.17;14.60;;;;;;;9.25;85.32;99893.34;5092515;28;20188;-75
2021/11/15 05:27:06;;;;;;;19.63;14.98;;;;;;;9.28;84.65;99898.56;5092878;28;20585;-75
2021/11/15 05:29:34;;;;;;;21.63;14.80;;;;;;;9.42;84.04;99894.31;5092805;28;20630;-73
2021/11/15 05:32:01;;;;;;;18.60;14.02;;;;;;;9.40;84.21;99897.06;5092352;28;20191;-74
2021/11/15 05:34:27;;;;;;;19.40;14.88;;;;;;;9.44;84.60;99887.94;5092403;28;20207;-75
2021/11/15 05:36:54;;;;;;;17.90;13.50;;;;;;;9.12;85.23;99887.66;5092602;28;20626;-75
2021/11/15 05:39:21;;;;;;;19.00;13.52;;;;;;;9.19;85.13;99894.47;5092443;28;20685;-74
2021/11/15 05:41:47;;;;;;;20.75;13.35;;;;;;;9.26;85.15;99897.75;5091971;28;20237;-75
2021/11/15 05:44:16;;;;;;;20.35;14.77;;;;;;;9.31;84.52;99903.75;5092176;28;20286;-73
2021/11/15 05:46:44;;;;;;;23.77;15.98;;;;;;;9.47;84.39;99897.66;5092406;28;20204;-74
2021/11/15 05:49:11;;;;;;;21.58;15.48;;;;;;;9.40;83.91;99908.69;5092062;28;20282;-73
2021/11/15 05:51:37;;;;;;;21.45;15.23;;;;;;;9.34;84.37;99906.31;5090012;28;20283;-73
2021/11/15 05:54:04;;;;;;;19.70;14.55;;;;;;;9.38;84.10;99898.97;5079416;28;20283;-74
2021/11/15 05:56:30;;;;;;;20.88;15.63;;;;;;;9.35;84.53;99909.88;5081063;28;20195;-73
2021/11/15 05:58:57;;;;;;;23.30;15.82;;;;;;;9.33;84.97;99912.63;5082656;28;20699;-74
2021/11/15 06:01:24;;;;;;;19.67;15.45;;;;;;;9.52;84.47;99909.94;5079905;28;20399;-74
2021/11/15 06:03:52;;;;;;;19.58;14.55;;;;;;;9.55;83.95;99917.84;5082135;28;20188;-74
2021/11/15 06:06:18;;;;;;;21.20;14.82;;;;;;;9.65;82.81;99906.63;5080715;28;20202;-74
2021/11/15 06:08:45;;;;;;;20.15;14.18;;;;;;;9.60;82.35;99905.03;5080950;28;20227;-74
2021/11/15 06:11:11;;;;;;;19.73;14.18;;;;;;;9.62;82.34;99915.72;5081852;28;20613;-75
2021/11/15 06:13:38;;;;;;;24.42;15.93;;;;;;;9.52;83.15;99914.41;5080095;28;20551;-73
2021/11/15 06:16:06;;;;;;;22.05;15.10;;;;;;;9.54;82.48;99915.22;5080878;28;20190;-74
2021/11/15 06:18:32;;;;;;;23.27;15.93;;;;;;;9.32;83.90;99927.03;5081842;28;20661;-74
2021/11/15 06:21:00;;;;;;;21.40;15.18;;;;;;;9.34;84.25;99921.59;5081612;28;20557;-76
2021/11/15 06:23:27;;;;;;;18.95;13.82;;;;;;;9.33;83.93;99931.44;5083893;28;20290;-75
2021/11/15 06:25:54;;;;;;;20.60;14.40;;;;;;;9.25;84.41;99930.06;5084247;28;20218;-75
2021/11/15 06:28:20;;;;;;;20.25;14.55;;;;;;;9.31;84.77;99925.25;5085025;28;20207;-73
2021/11/15 06:30:47;;;;;;;15.93;11.38;;;;;;;9.23;83.34;99927.47;5082404;28;20239;-75
2021/11/15 06:33:14;;;;;;;20.75;15.27;;;;;;;9.30;84.17;99933.41;5083882;28;20197;-75
2021/11/15 06:35:41;;;;;;;20.65;13.93;;;;;;;9.16;84.54;99928.69;5084745;28;20191;-73
2021/11/15 06:38:09;;;;;;;24.23;14.70;;;;;;;9.27;83.61;99929.06;5085346;28;20199;-74
2021/11/15 06:40:35;;;;;;;19.95;13.95;;;;;;;9.05;84.92;99936.38;5089111;28;20298;-74
2021/11/15 06:43:02;;;;;;;20.08;15.43;;;;;;;9.19;85.20;99929.41;5082843;28;20231;-74
2021/11/15 06:45:30;;;;;;;20.88;14.88;;;;;;;9.37;84.22;99934.88;5085161;28;20285;-75
2021/11/15 06:47:57;;;;;;;20.20;15.48;;;;;;;9.47;83.51;99940.66;5083297;28;20218;-74
2021/11/15 06:50:24;;;;;;;20.33;13.68;;;;;;;9.44;82.89;99936.31;5084242;28;20413;-74
2021/11/15 06:52:52;;;;;;;20.08;15.43;;;;;;;9.30;83.74;99938.78;5083019;28;20547;-74
2021/11/15 06:55:22;;;;;;;24.05;15.57;;;;;;;9.37;83.58;99935.72;5085972;28;20198;-74
2021/11/15 06:57:50;;;;;;;22.50;15.38;;;;;;;9.40;82.92;99951.69;5082555;28;20245;-75
2021/11/15 07:00:21;;;;;;;20.33;13.52;;;;;;;9.47;82.14;99951.41;5085158;28;20284;-74
2021/11/15 07:02:49;;;;;;;20.63;14.13;;;;;;;9.43;83.00;99949.81;5082543;28;20273;-75
2021/11/15 07:05:16;;;;;;;21.15;15.48;;;;;;;9.45;82.97;99950.59;5083289;28;20277;-73
2021/11/15 07:07:43;;;;;;;22.58;16.92;;;;;;;9.50;82.94;99953.97;5084297;28;20208;-73
2021/11/15 07:10:12;;;;;;;24.85;16.67;;;;;;;9.55;82.05;99942.03;5083036;28;20185;-73
2021/11/15 07:12:41;;;;;;;24.45;16.58;;;;;;;9.44;82.36;99951.56;5082687;28;20184;-74
2021/11/15 07:15:09;;;;;;;22.80;15.68;;;;;;;9.49;82.18;99950.38;5085127;28;20285;-74
2021/11/15 07:17:35;;;;;;;18.13;13.18;;;;;;;9.43;82.68;99956.06;5093777;28;20545;-74
2021/11/15 07:20:02;;;;;;;19.70;14.93;;;;;;;9.55;82.32;99957.31;5093248;28;20274;-75
2021/11/15 07:22:29;;;;;;;22.23;15.07;;;;;;;9.43;82.89;99964.16;5090350;28;20212;-74
2021/11/15 07:24:55;;;;;;;19.88;14.70;;;;;;;9.36;82.54;99955.50;5082198;28;20198;-74
2021/11/15 07:27:22;;;;;;;22.65;15.65;;;;;;;9.55;82.80;99962.69;5081936;28;20194;-74
2021/11/15 07:29:50;;;;;;;26.42;16.35;;;;;;;9.40;83.44;99964.25;5083171;28;20191;-75
2021/11/15 07:32:17;;;;;;;22.85;16.00;;;;;;;9.35;83.02;99963.63;5082999;28;20282;-74
2021/11/15 07:34:44;;;;;;;20.17;14.88;;;;;;;9.28;83.43;99959.50;5081916;28;20202;-73
2021/11/15 07:37:11;;;;;;;20.38;14.15;;;;;;;9.25;83.68;99963.19;5082057;28;20546;-73
2021/11/15 07:39:42;;;;;;;20.83;14.77;;;;;;;9.45;83.19;99964.06;5082497;28;20197;-73
2021/11/15 07:42:10;;;;;;;22.70;13.90;;;;;;;9.32;83.06;99961.97;5083407;28;20668;-74
2021/11/15 07:44:37;;;;;;;22.20;15.48;;;;;;;9.28;83.39;99967.53;5082294;28;20556;-75
2021/11/15 07:47:06;;;;;;;24.67;16.80;;;;;;;9.45;82.94;99974.81;5092600;28;20465;-75
2021/11/15 07:49:33;;;;;;;22.10;15.50;;;;;;;9.42;82.76;99975.81;5092624;28;20189;-74
2021/11/15 07:52:01;;;;;;;19.42;14.75;;;;;;;9.48;82.29;99977.38;5093665;28;20278;-74
2021/11/15 07:54:27;;;;;;;20.55;15.35;;;;;;;9.42;81.78;99978.50;5093431;28;20195;-73
2021/11/15 07:56:54;;;;;;;18.30;14.45;;;;;;;9.43;82.91;99974.91;5093622;28;20195;-75
2021/11/15 07:59:21;;;;;;;19.85;15.13;;;;;;;9.48;82.56;99980.06;5092902;28;20206;-74
2021/11/15 08:01:47;;;;;;;22.13;15.70;;;;;;;9.57;81.54;99985.84;5093049;28;20305;-74
2021/11/15 08:04:15;;;;;;;18.90;14.32;;;;;;;9.44;81.64;99983.81;5093077;28;20209;-74
2021/11/15 08:06:42;;;;;;;19.95;14.18;;;;;;;9.54;81.60;99985.13;5093528;28;20191;-75
2021/11/15 08:09:09;;;;;;;20.17;14.77;;;;;;;9.63;81.12;99984.66;5092991;28;20276;-74
2021/11/15 08:11:37;;;;;;;22.35;14.57;;;;;;;9.66;80.80;99978.31;5093360;28;20617;-74
2021/11/15 08:14:04;;;;;;;22.40;15.90;;;;;;;9.47;81.44;99984.53;5092715;28;20542;-75
2021/11/15 08:16:31;;;;;;;21.40;14.75;;;;;;;9.51;81.08;99977.19;5092864;28;20227;-76
2021/11/15 08:18:57;;;;;;;20.30;15.10;;;;;;;9.54;81.50;99979.72;5092638;28;20252;-75
2021/11/15 08:21:26;;;;;;;23.48;15.43;;;;;;;9.47;82.26;99983.66;5092910;28;20183;-75
2021/11/15 08:23:54;;;;;;;22.40;14.27;;;;;;;9.49;82.19;99990.72;5092642;28;20191;-75
2021/11/15 08:26:39;;;;;;;21.02;16.10;;;;;;;9.47;82.12;99983.66;5092640;28;20210;-75
2021/11/15 08:29:10;;;;;;;18.85;14.38;;;;;;;9.69;81.43;99981.69;5093012;28;20187;-75
2021/11/15 08:31:40;;;;;;;20.95;14.60;;;;;;;9.70;81.29;99987.94;5092156;28;20206;-75
2021/11/15 08:34:07;;;;;;;22.23;15.90;;;;;;;9.65;81.29;99989.97;5092415;28;20274;-74
2021/11/15 08:36:39;;;;;;;18.08;13.68;;;;;;;9.63;82.19;99984.66;5092651;28;20207;-74
2021/11/15 08:39:07;;;;;;;19.17;15.35;;;;;;;9.57;81.97;99979.59;5092588;28;20222;-76
2021/11/15 08:41:36;;;;;;;23.05;15.75;;;;;;;9.71;81.62;99987.00;5091806;28;20316;-75
2021/11/15 08:44:06;;;;;;;23.95;15.98;;;;;;;9.72;81.97;99978.88;5092011;28;20192;-73
2021/11/15 08:46:34;;;;;;;20.58;14.70;;;;;;;9.74;81.60;99971.56;5092407;28;20528;-73
2021/11/15 08:49:03;;;;;;;23.45;15.52;;;;;;;9.86;80.54;99971.91;5092517;28;20191;-73
2021/11/15 08:51:30;;;;;;;24.95;16.42;;;;;;;9.88;80.65;99968.25;5092340;28;20281;-74
2021/11/15 08:54:00;;;;;;;24.90;17.20;;;;;;;9.76;80.98;99971.50;5092225;28;20204;-74
2021/11/15 08:56:27;;;;;;;19.08;13.10;;;;;;;9.76;80.79;99972.38;5090625;28;20272;-75
2021/11/15 08:58:54;;;;;;;20.83;14.50;;;;;;;9.79;81.17;99963.28;5092300;28;20208;-74
2021/11/15 09:01:21;;;;;;;20.02;15.20;;;;;;;9.89;80.22;99969.09;5092111;28;20286;-75
2021/11/15 09:03:50;;;;;;;23.77;15.30;;;;;;;9.77;80.21;99967.91;5092529;28;20244;-74
2021/11/15 09:06:18;;;;;;;19.92;15.05;;;;;;;9.57;81.14;99963.47;5092535;28;20189;-74
2021/11/15 09:08:45;;;;;;;25.13;17.13;;;;;;;9.56;81.84;99962.59;5092152;28;20291;-73
2021/11/15 09:11:15;;;;;;;23.25;16.95;;;;;;;9.71;81.81;99960.13;5092201;28;20188;-74
2021/11/15 09:13:45;;;;;;;20.05;15.10;;;;;;;9.68;80.83;99971.00;5091961;28;20260;-74
2021/11/15 09:16:15;;;;;;;17.70;13.60;;;;;;;9.62;80.66;99974.88;5092761;28;20691;-74
2021/11/15 09:18:42;;;;;;;21.08;14.32;;;;;;;9.76;80.28;99971.50;5092303;28;20192;-75
2021/11/15 09:21:10;;;;;;;20.15;13.65;;;;;;;9.73;80.20;99969.84;5092088;28;20211;-75
2021/11/15 09:23:40;;;;;;;22.52;14.75;;;;;;;9.81;79.82;99962.28;5091488;28;20504;-74
2021/11/15 09:26:08;;;;;;;18.85;14.90;;;;;;;9.68;80.84;99962.94;5091808;28;20226;-74
2021/11/15 09:28:36;;;;;;;38.83;35.15;;;;;;;9.91;80.19;99956.44;5092019;28;20270;-74
2021/11/15 09:31:03;;;;;;;18.35;13.48;;;;;;;9.60;79.84;99952.56;5091388;28;20291;-75
2021/11/15 09:33:30;;;;;;;20.60;14.45;;;;;;;9.47;80.97;99963.03;5092190;28;20199;-74
2021/11/15 09:35:57;;;;;;;18.42;14.20;;;;;;;9.44;81.11;99959.63;5091962;28;20283;-74
2021/11/15 09:38:24;;;;;;;18.88;13.77;;;;;;;9.38;81.32;99961.69;5091450;28;20205;-75
2021/11/15 09:40:56;;;;;;;20.27;14.35;;;;;;;9.60;81.12;99963.31;5091971;28;20590;-73
2021/11/15 09:43:23;;;;;;;17.90;14.07;;;;;;;9.52;80.66;99962.81;5091432;28;20333;-74
2021/11/15 09:45:51;;;;;;;20.90;15.10;;;;;;;9.51;80.63;99971.81;5091506;28;20653;-75
2021/11/15 09:48:17;;;;;;;20.67;15.77;;;;;;;9.52;80.90;99978.94;5091550;28;20192;-74
2021/11/15 09:50:44;;;;;;;17.75;13.88;;;;;;;9.47;80.41;99976.47;5091793;28;20199;-74
2021/11/15 09:53:11;;;;;;;21.20;14.70;;;;;;;9.60;80.34;99972.25;5092247;28;20278;-76
2021/11/15 09:55:38;;;;;;;18.58;13.60;;;;;;;9.55;80.59;99976.97;5086502;28;20260;-74
2021/11/15 09:58:05;;;;;;;21.35;15.02;;;;;;;9.81;79.53;99980.22;5085565;28;20227;-74
2021/11/15 10:00:34;;;;;;;23.48;16.73;;;;;;;9.64;80.19;99982.88;5084095;28;20294;-74
2021/11/15 10:03:02;;;;;;;21.63;14.55;;;;;;;9.31;81.89;99979.00;5084512;28;20211;-75
2021/11/15 10:05:30;;;;;;;22.27;15.60;;;;;;;9.28;82.69;99984.53;5085532;28;20520;-74
2021/11/15 10:07:57;;;;;;;20.92;15.60;;;;;;;9.33;82.49;99976.25;5083797;28;20207;-76
2021/11/15 10:10:30;;;;;;;20.30;15.65;;;;;;;9.57;81.64;99980.47;5084154;28;20198;-74
2021/11/15 10:13:22;;;;;;;23.00;15.25;;;;;;;9.59;81.33;99975.91;5083937;28;20279;-73
2021/11/15 10:15:55;;;;;;;20.10;14.95;;;;;;;9.85;79.75;99979.13;5075991;28;20671;-73
2021/11/15 10:18:32;;;;;;;18.95;14.32;;;;;;;9.62;80.21;99982.06;5084865;28;20636;-75
2021/11/15 10:21:01;;;;;;;19.85;15.15;;;;;;;9.81;80.41;99978.44;5084333;28;20192;-75
2021/11/15 10:23:31;;;;;;;21.70;15.77;;;;;;;9.71;80.94;99979.81;5083021;28;20630;-75
2021/11/15 10:26:00;;;;;;;18.17;15.52;;;;;;;9.76;81.11;99971.50;5084589;28;20293;-75
2021/11/15 10:28:28;;;;;;;18.92;14.68;;;;;;;9.88;80.01;99972.72;5084975;28;20193;-74
2021/11/15 10:30:55;;;;;;;21.33;15.27;;;;;;;9.97;79.36;99957.03;5083472;28;20191;-74
2021/11/15 10:33:33;;;;;;;23.00;15.65;;;;;;;9.84;79.90;99955.88;5083640;28;20642;-74
2021/11/15 10:35:59;;;;;;;17.10;13.15;;;;;;;10.01;79.16;99957.72;5073626;28;20282;-74
2021/11/15 10:38:41;;;;;;;24.48;18.10;;;;;;;10.12;79.05;99960.75;5073638;28;20215;-74
2021/11/15 10:41:13;;;;;;;20.10;14.38;;;;;;;10.14;78.13;99955.28;5078965;28;20197;-75
2021/11/15 10:43:39;;;;;;;19.05;13.27;;;;;;;10.07;77.73;99960.09;5083721;28;20680;-74
2021/11/15 10:46:06;;;;;;;20.42;15.75;;;;;;;9.74;79.82;99960.81;5084358;28;20582;-74
2021/11/15 10:48:46;;;;;;;20.42;15.00;;;;;;;9.75;80.33;99956.34;5082545;28;20227;-74
2021/11/15 10:51:14;;;;;;;20.25;15.30;;;;;;;9.81;80.46;99953.31;5073560;28;20247;-74
2021/11/15 10:53:54;;;;;;;22.00;15.02;;;;;;;9.89;80.36;99947.59;5073065;28;20194;-74
2021/11/15 10:56:27;;;;;;;20.25;16.05;;;;;;;9.95;80.16;99952.63;5075095;28;20206;-74
2021/11/15 10:58:54;;;;;;;23.92;14.40;;;;;;;9.87;80.23;99946.78;5082469;28;20199;-73
2021/11/15 11:01:29;;;;;;;19.38;14.93;;;;;;;9.89;80.38;99952.97;5083118;28;20301;-74
2021/11/15 11:04:10;;;;;;;23.38;15.93;;;;;;;9.73;81.50;99958.22;5085441;28;20241;-74
2021/11/15 11:06:56;;;;;;;21.10;15.30;;;;;;;9.77;81.74;99962.50;5093621;28;20327;-75
2021/11/15 11:09:36;;;;;;;20.67;15.05;;;;;;;9.71;82.05;99949.38;5093751;28;20185;-75
2021/11/15 11:12:12;;;;;;;24.27;16.77;;;;;;;9.59;83.03;99950.84;5093641;28;20202;-74
2021/11/15 11:14:39;;;;;;;18.70;14.93;;;;;;;9.82;81.66;99939.81;5093669;28;20357;-73
2021/11/15 11:17:06;;;;;;;25.00;18.13;;;;;;;9.95;80.63;99928.44;5092014;28;20197;-73
2021/11/15 11:20:02;;;;;;;22.00;16.63;;;;;;;10.13;79.65;99923.94;5081482;28;20283;-73
2021/11/15 11:25:25;;;;;;;23.77;15.55;;;;;;;9.68;81.57;99922.59;5079831;28;20274;-72
2021/11/15 11:27:55;;;;;;;24.63;15.80;;;;;;;9.93;81.02;99924.97;5083288;28;20272;-75
2021/11/15 11:30:22;;;;;;;18.70;14.15;;;;;;;10.06;80.16;99926.06;5081969;28;20326;-74
2021/11/15 11:32:51;;;;;;;21.80;15.88;;;;;;;9.95;80.19;99923.03;5081896;28;20177;-74